Time;durP1;ratioP1;P1;durP2;ratioP2;P2;SDS_P1;SDS_P2;PMS_P1;PMS_P2;Temp;Humidity;BMP_temperature;BMP_pressure;BME280_temperature;BME280_humidity;BME280_pressure;Samples;Min_cycle;Max_cycle;Signal;HPM_P1;HPM_P2
2023/10/22 00:00:33;;;;;;;;;;;11.00;99.90;;;;;;5035683;28;20052;-58
2023/10/22 00:03:00;;;;;;;2.78;0.30;;;11.00;99.90;;;;;;5032063;28;20356;-58
2023/10/22 00:05:26;;;;;;;1.92;0.20;;;11.00;99.90;;;;;;5032975;28;20064;-55
2023/10/22 00:07:53;;;;;;;0.73;0.30;;;11.00;99.90;;;;;;5032826;28;20083;-58
2023/10/22 00:10:20;;;;;;;0.30;0.30;;;11.00;99.90;;;;;;5027698;28;20043;-56
2023/10/22 00:12:47;;;;;;;2.00;0.28;;;11.10;99.90;;;;;;5028208;28;20050;-59
2023/10/22 00:15:14;;;;;;;0.47;0.20;;;11.10;99.90;;;;;;5032643;28;20051;-58
2023/10/22 00:17:44;;;;;;;1.85;0.20;;;11.10;99.90;;;;;;5036758;28;20460;-58
2023/10/22 00:20:11;;;;;;;2.80;0.20;;;11.00;99.90;;;;;;5039185;28;20056;-59
2023/10/22 00:22:38;;;;;;;0.45;0.30;;;11.00;99.90;;;;;;5030398;28;20052;-59
2023/10/22 00:25:05;;;;;;;0.68;0.30;;;10.90;99.90;;;;;;5032430;28;20053;-58
2023/10/22 00:27:32;;;;;;;1.20;0.20;;;10.90;99.90;;;;;;5031586;28;20409;-56
2023/10/22 00:30:00;;;;;;;0.30;0.30;;;10.90;99.90;;;;;;5010375;28;20574;-61
2023/10/22 00:32:28;;;;;;;0.75;0.30;;;10.90;99.90;;;;;;5028805;28;20033;-59
2023/10/22 00:34:55;;;;;;;0.20;0.20;;;10.90;99.90;;;;;;5013960;28;20539;-58
2023/10/22 00:37:22;;;;;;;0.88;0.20;;;10.90;99.90;;;;;;5031349;28;20128;-58
2023/10/22 00:39:49;;;;;;;1.75;0.40;;;10.90;99.90;;;;;;5014092;28;20056;-56
2023/10/22 00:42:16;;;;;;;0.45;0.20;;;11.00;99.90;;;;;;5031547;28;20037;-59
2023/10/22 00:44:43;;;;;;;0.22;0.22;;;11.00;99.90;;;;;;5032328;28;20041;-58
2023/10/22 00:47:14;;;;;;;1.02;0.20;;;11.00;99.90;;;;;;5028809;28;20199;-58
2023/10/22 00:49:42;;;;;;;0.30;0.20;;;11.00;99.90;;;;;;5010479;28;20100;-58
2023/10/22 00:52:13;;;;;;;0.40;0.20;;;11.00;99.90;;;;;;4998889;28;20049;-59
2023/10/22 00:54:40;;;;;;;0.60;0.30;;;10.90;99.90;;;;;;4997439;28;20037;-55
2023/10/22 00:57:08;;;;;;;1.08;0.30;;;10.90;99.90;;;;;;5012888;28;20078;-58
2023/10/22 00:59:35;;;;;;;0.20;0.20;;;10.90;99.90;;;;;;5012406;28;20053;-59
2023/10/22 01:02:02;;;;;;;0.70;0.30;;;10.90;99.90;;;;;;5014322;28;20055;-60
2023/10/22 01:04:30;;;;;;;0.77;0.38;;;10.90;99.90;;;;;;5032628;28;20041;-57
2023/10/22 01:06:57;;;;;;;1.65;0.30;;;10.90;99.90;;;;;;5036921;28;20037;-58
2023/10/22 01:09:24;;;;;;;0.85;0.30;;;11.00;99.90;;;;;;5014009;28;20049;-59
2023/10/22 01:12:02;;;;;;;0.45;0.30;;;11.00;99.90;;;;;;5013891;28;20049;-59
2023/10/22 01:14:29;;;;;;;0.85;0.55;;;11.00;99.90;;;;;;5012850;28;20045;-58
2023/10/22 01:16:56;;;;;;;;;;;11.00;99.90;;;;;;5014421;28;20045;-58
2023/10/22 01:19:24;;;;;;;1.90;0.93;;;11.00;99.90;;;;;;5031609;28;19921;-59
2023/10/22 01:21:50;;;;;;;0.38;0.38;;;10.90;99.90;;;;;;5013983;28;20104;-59
2023/10/22 01:24:17;;;;;;;0.40;0.30;;;10.90;99.90;;;;;;5012419;28;20069;-59
2023/10/22 01:26:45;;;;;;;0.30;0.30;;;10.80;99.90;;;;;;5013731;28;20052;-60
2023/10/22 01:29:12;;;;;;;0.65;0.43;;;10.80;99.90;;;;;;5013295;28;20285;-59
2023/10/22 01:31:38;;;;;;;0.80;0.22;;;10.90;99.90;;;;;;5013834;28;20046;-60
2023/10/22 01:34:05;;;;;;;1.65;0.40;;;10.80;99.90;;;;;;5012674;28;20044;-59
2023/10/22 01:36:32;;;;;;;2.05;0.38;;;10.90;99.90;;;;;;5026294;28;20486;-60
2023/10/22 01:38:59;;;;;;;0.30;0.30;;;10.90;99.90;;;;;;5018417;28;20132;-58
2023/10/22 01:41:26;;;;;;;0.57;0.30;;;10.90;99.90;;;;;;5029657;28;20707;-59
2023/10/22 01:43:53;;;;;;;1.70;0.35;;;10.80;99.90;;;;;;5020060;28;20041;-59
2023/10/22 01:46:20;;;;;;;0.35;0.30;;;10.90;99.90;;;;;;5017939;28;20072;-58
2023/10/22 01:48:47;;;;;;;0.50;0.40;;;10.90;99.90;;;;;;5015653;28;20044;-58
2023/10/22 01:51:14;;;;;;;0.30;0.30;;;10.90;99.90;;;;;;5016915;28;20061;-59
2023/10/22 01:53:42;;;;;;;0.85;0.70;;;10.90;99.90;;;;;;5018117;28;20407;-58
2023/10/22 01:56:09;;;;;;;2.35;0.70;;;10.90;99.90;;;;;;5018811;28;20125;-57
2023/10/22 01:58:36;;;;;;;0.73;0.50;;;10.90;99.90;;;;;;5019792;28;20103;-59
2023/10/22 02:01:04;;;;;;;;;;;10.90;99.90;;;;;;5020017;28;20041;-59
2023/10/22 02:03:34;;;;;;;0.55;0.40;;;10.90;99.90;;;;;;5016657;28;20372;-59
2023/10/22 02:06:09;;;;;;;0.75;0.40;;;10.90;99.90;;;;;;5010309;28;20046;-59
2023/10/22 02:08:36;;;;;;;1.10;0.60;;;10.90;99.90;;;;;;5034358;28;20120;-58
2023/10/22 02:11:04;;;;;;;0.57;0.38;;;10.90;99.90;;;;;;5016689;28;20037;-58
2023/10/22 02:13:31;;;;;;;0.30;0.20;;;10.90;99.90;;;;;;5015698;28;20030;-58
2023/10/22 02:15:58;;;;;;;2.85;0.20;;;11.00;99.90;;;;;;5019674;28;20049;-59
2023/10/22 02:18:25;;;;;;;0.35;0.20;;;11.00;99.90;;;;;;5028150;28;20107;-59
2023/10/22 02:20:59;;;;;;;0.30;0.30;;;11.00;99.90;;;;;;5011673;28;20525;-58
2023/10/22 02:23:27;;;;;;;0.80;0.43;;;10.90;99.90;;;;;;5019045;28;20052;-59
2023/10/22 02:25:54;;;;;;;1.17;0.40;;;11.00;99.90;;;;;;5033193;28;20050;-59
2023/10/22 02:28:21;;;;;;;0.85;0.50;;;10.90;99.90;;;;;;5019528;28;20087;-58
2023/10/22 02:30:48;;;;;;;0.52;0.43;;;10.90;99.90;;;;;;5019231;28;20048;-59
2023/10/22 02:33:15;;;;;;;0.50;0.50;;;10.90;99.90;;;;;;5019075;28;20486;-59
2023/10/22 02:35:44;;;;;;;0.40;0.40;;;10.90;99.90;;;;;;5044293;28;20079;-60
2023/10/22 02:38:18;;;;;;;1.50;0.60;;;11.00;99.90;;;;;;5031667;28;20045;-59
2023/10/22 02:40:49;;;;;;;1.25;0.50;;;10.90;99.90;;;;;;5016712;28;20045;-60
2023/10/22 02:43:16;;;;;;;1.10;0.45;;;10.90;99.90;;;;;;5015125;28;20049;-59
2023/10/22 02:45:49;;;;;;;;;;;10.90;99.90;;;;;;5029343;28;20322;-59
2023/10/22 02:48:16;;;;;;;2.08;0.50;;;10.90;99.90;;;;;;5036767;28;19928;-59
2023/10/22 02:50:44;;;;;;;1.08;0.47;;;10.90;99.90;;;;;;5015948;28;20045;-58
2023/10/22 02:53:12;;;;;;;;;;;10.90;99.90;;;;;;5031443;28;20049;-58
2023/10/22 02:55:39;;;;;;;0.80;0.50;;;10.90;99.90;;;;;;5034449;28;20369;-60
2023/10/22 02:58:06;;;;;;;0.90;0.50;;;10.90;99.90;;;;;;5016230;28;20049;-59
2023/10/22 03:00:34;;;;;;;0.50;0.47;;;10.90;99.90;;;;;;5034366;28;20042;-59
2023/10/22 03:03:03;;;;;;;0.73;0.50;;;10.80;99.90;;;;;;5022821;28;20033;-59
2023/10/22 03:05:36;;;;;;;0.70;0.50;;;10.80;99.90;;;;;;5016580;28;20099;-58
2023/10/22 03:08:05;;;;;;;0.52;0.50;;;10.90;99.90;;;;;;5033972;28;20111;-58
2023/10/22 03:10:39;;;;;;;1.75;0.50;;;10.90;99.90;;;;;;5026976;28;20059;-59
2023/10/22 03:13:06;;;;;;;0.98;0.70;;;10.90;99.90;;;;;;5009301;28;20044;-58
2023/10/22 03:15:33;;;;;;;;;;;10.90;99.90;;;;;;5016347;28;20052;-59
2023/10/22 03:17:59;;;;;;;1.20;0.55;;;10.90;99.90;;;;;;5015011;28;19927;-59
2023/10/22 03:20:30;;;;;;;1.58;0.60;;;10.90;99.90;;;;;;5015985;28;20548;-59
2023/10/22 03:23:00;;;;;;;1.27;0.70;;;10.80;99.90;;;;;;5007175;28;20052;-59
2023/10/22 03:25:27;;;;;;;1.08;0.88;;;10.80;99.90;;;;;;5027513;28;20041;-59
2023/10/22 03:27:54;;;;;;;0.80;0.80;;;10.80;99.90;;;;;;5032649;28;20052;-59
2023/10/22 03:30:22;;;;;;;2.22;0.70;;;10.80;99.90;;;;;;5015673;28;20430;-58
2023/10/22 03:32:48;;;;;;;0.90;0.60;;;10.80;99.90;;;;;;5031889;28;20122;-59
2023/10/22 03:35:16;;;;;;;0.82;0.77;;;10.80;99.90;;;;;;5028384;28;20034;-56
2023/10/22 03:37:43;;;;;;;1.85;1.00;;;10.80;99.90;;;;;;5010663;28;20041;-58
2023/10/22 03:40:10;;;;;;;1.02;0.98;;;10.80;99.90;;;;;;5033000;28;20048;-58
2023/10/22 03:42:37;;;;;;;2.60;1.23;;;10.80;99.90;;;;;;5025163;28;20060;-57
2023/10/22 03:45:06;;;;;;;1.38;1.08;;;10.80;99.90;;;;;;5007513;28;20141;-60
2023/10/22 03:47:33;;;;;;;1.67;1.33;;;10.80;99.90;;;;;;5033339;28;20410;-60
2023/10/22 03:49:59;;;;;;;1.98;0.95;;;10.80;99.90;;;;;;5033017;28;20041;-59
2023/10/22 03:52:26;;;;;;;1.77;1.20;;;10.80;99.90;;;;;;5037817;28;20117;-60
2023/10/22 03:54:56;;;;;;;3.22;1.15;;;10.80;99.90;;;;;;5006131;28;20820;-59
2023/10/22 03:57:23;;;;;;;;;;;10.80;99.90;;;;;;5033375;28;20402;-58
2023/10/22 03:59:50;;;;;;;1.85;1.35;;;10.80;99.90;;;;;;5033138;28;19921;-59
2023/10/22 04:02:18;;;;;;;1.60;1.15;;;10.70;99.90;;;;;;5031096;28;20048;-59
2023/10/22 04:04:44;;;;;;;1.80;1.20;;;10.70;99.90;;;;;;5015203;28;20120;-58
2023/10/22 04:07:11;;;;;;;2.08;1.50;;;10.70;99.90;;;;;;5040935;28;20052;-58
2023/10/22 04:09:38;;;;;;;1.95;1.40;;;10.70;99.90;;;;;;5027511;28;20077;-60
2023/10/22 04:12:05;;;;;;;1.13;1.02;;;10.70;99.90;;;;;;5033119;28;20041;-59
2023/10/22 04:14:34;;;;;;;1.63;1.20;;;10.70;99.90;;;;;;5032741;28;20111;-58
2023/10/22 04:17:01;;;;;;;2.45;1.00;;;10.70;99.90;;;;;;5030842;28;20045;-58
2023/10/22 04:19:28;;;;;;;1.27;1.17;;;10.70;99.90;;;;;;5028207;28;20042;-58
2023/10/22 04:21:55;;;;;;;1.35;0.93;;;10.70;99.90;;;;;;5031594;28;20434;-57
2023/10/22 04:24:22;;;;;;;1.58;1.05;;;10.70;99.90;;;;;;5014774;28;20044;-59
2023/10/22 04:26:49;;;;;;;1.20;1.10;;;10.70;99.90;;;;;;5032392;28;20394;-59
2023/10/22 04:29:16;;;;;;;1.50;1.40;;;10.80;99.90;;;;;;5027485;28;20691;-59
2023/10/22 04:31:42;;;;;;;2.22;1.23;;;10.70;99.90;;;;;;5029527;28;20049;-58
2023/10/22 04:34:09;;;;;;;2.80;1.08;;;10.70;99.90;;;;;;5032597;28;20060;-56
2023/10/22 04:36:36;;;;;;;4.03;1.10;;;10.70;99.90;;;;;;5032229;28;20044;-59
2023/10/22 04:39:03;;;;;;;1.48;1.20;;;10.60;99.90;;;;;;5023621;28;20041;-59
2023/10/22 04:41:30;;;;;;;1.80;1.13;;;10.70;99.90;;;;;;5032586;28;20095;-59
2023/10/22 04:43:57;;;;;;;4.15;1.20;;;10.70;99.90;;;;;;5031824;28;20487;-59
2023/10/22 04:46:23;;;;;;;1.00;0.88;;;10.60;99.90;;;;;;5024720;28;20033;-59
2023/10/22 04:48:50;;;;;;;1.27;1.15;;;10.60;99.90;;;;;;5017605;28;20069;-58
2023/10/22 04:51:18;;;;;;;1.17;1.05;;;10.70;99.90;;;;;;5032250;28;20069;-59
2023/10/22 04:53:44;;;;;;;;;;;10.60;99.90;;;;;;5032205;28;20052;-59
2023/10/22 04:56:11;;;;;;;0.70;0.70;;;10.70;99.90;;;;;;5028614;28;20015;-58
2023/10/22 04:58:38;;;;;;;3.15;0.80;;;10.70;99.90;;;;;;5027273;28;20049;-60
2023/10/22 05:01:05;;;;;;;1.85;1.00;;;10.70;99.90;;;;;;5030754;28;20041;-59
2023/10/22 05:03:32;;;;;;;0.70;0.63;;;10.70;99.90;;;;;;5031221;28;20045;-60
2023/10/22 05:06:04;;;;;;;4.80;0.90;;;10.70;99.90;;;;;;5031196;28;20049;-59
2023/10/22 05:08:36;;;;;;;0.98;0.90;;;10.70;99.90;;;;;;5028179;28;20054;-59
2023/10/22 05:11:06;;;;;;;;;;;10.70;99.90;;;;;;5031867;28;20049;-59
2023/10/22 05:13:33;;;;;;;2.20;1.15;;;10.70;99.90;;;;;;5031188;28;19964;-60
2023/10/22 05:16:00;;;;;;;1.48;1.20;;;10.70;99.90;;;;;;5031914;28;20034;-58
2023/10/22 05:18:27;;;;;;;9.30;1.50;;;10.70;99.90;;;;;;5030259;28;20042;-59
2023/10/22 05:21:01;;;;;;;4.13;1.35;;;10.60;99.90;;;;;;5031619;28;20045;-59
2023/10/22 05:23:28;;;;;;;1.27;0.98;;;10.60;99.90;;;;;;5031652;28;20044;-58
2023/10/22 05:26:08;;;;;;;1.85;0.90;;;10.60;99.90;;;;;;5029634;28;20049;-58
2023/10/22 05:28:35;;;;;;;0.98;0.82;;;10.60;99.90;;;;;;5026997;28;20045;-59
2023/10/22 05:31:10;;;;;;;1.85;0.70;;;10.60;99.90;;;;;;5028184;28;20033;-59
2023/10/22 05:33:37;;;;;;;1.00;0.68;;;10.60;99.90;;;;;;5031317;28;20042;-59
2023/10/22 05:36:04;;;;;;;0.90;0.80;;;10.60;99.90;;;;;;5021853;28;20129;-59
2023/10/22 05:38:30;;;;;;;0.60;0.60;;;10.60;99.90;;;;;;5030638;28;20038;-58
2023/10/22 05:40:57;;;;;;;0.95;0.70;;;10.60;99.90;;;;;;5022763;28;20048;-59
2023/10/22 05:43:24;;;;;;;3.08;0.82;;;10.70;99.90;;;;;;5027046;28;20041;-58
2023/10/22 05:45:57;;;;;;;2.72;0.90;;;10.60;99.90;;;;;;5028986;28;20045;-59
2023/10/22 05:48:24;;;;;;;2.15;0.98;;;10.70;99.90;;;;;;5031273;28;20037;-59
2023/10/22 05:50:51;;;;;;;4.45;1.00;;;10.70;99.90;;;;;;5029775;28;20689;-59
2023/10/22 05:53:18;;;;;;;2.33;1.35;;;10.60;99.90;;;;;;5031216;28;20482;-59
2023/10/22 05:55:44;;;;;;;1.58;1.30;;;10.70;99.90;;;;;;5030832;28;20045;-59
2023/10/22 05:58:11;;;;;;;2.72;1.20;;;10.60;99.90;;;;;;5031222;28;20041;-59
2023/10/22 06:00:38;;;;;;;2.63;1.90;;;10.60;99.90;;;;;;5030094;28;20045;-58
2023/10/22 06:03:05;;;;;;;5.53;2.30;;;10.70;99.90;;;;;;5031287;28;20069;-58
2023/10/22 06:05:38;;;;;;;3.05;2.05;;;10.60;99.90;;;;;;5036211;28;20100;-58
2023/10/22 06:08:05;;;;;;;3.92;2.28;;;10.60;99.90;;;;;;5031355;28;20407;-57
2023/10/22 06:10:31;;;;;;;4.07;2.75;;;10.60;99.90;;;;;;5030225;28;20517;-59
2023/10/22 06:12:58;;;;;;;3.90;2.70;;;10.50;99.90;;;;;;5029438;28;20068;-59
2023/10/22 06:15:25;;;;;;;3.30;2.70;;;10.50;99.90;;;;;;5024977;28;20059;-58
2023/10/22 06:17:52;;;;;;;4.28;3.00;;;10.50;99.90;;;;;;5031113;28;20044;-59
2023/10/22 06:20:19;;;;;;;2.92;2.55;;;10.60;99.90;;;;;;5024088;28;20455;-60
2023/10/22 06:22:46;;;;;;;4.78;3.00;;;10.60;99.90;;;;;;5030745;28;20049;-59
2023/10/22 06:25:13;;;;;;;4.45;2.78;;;10.60;99.90;;;;;;5032374;28;20532;-59
2023/10/22 06:27:40;;;;;;;4.03;2.85;;;10.60;99.90;;;;;;5032249;28;20045;-60
2023/10/22 06:30:07;;;;;;;3.22;2.47;;;10.60;99.90;;;;;;5032076;28;20048;-57
2023/10/22 06:32:34;;;;;;;5.43;2.70;;;10.70;99.90;;;;;;5030850;28;20045;-59
2023/10/22 06:35:01;;;;;;;3.38;2.67;;;10.60;99.90;;;;;;5028369;28;20092;-59
2023/10/22 06:37:27;;;;;;;3.75;3.00;;;10.60;99.90;;;;;;5028029;28;21375;-59
2023/10/22 06:39:55;;;;;;;2.97;2.42;;;10.70;99.90;;;;;;5038052;28;20046;-59
2023/10/22 06:42:21;;;;;;;;;;;10.70;99.90;;;;;;5025177;28;20112;-59
2023/10/22 06:44:48;;;;;;;4.80;3.42;;;10.70;99.90;;;;;;5025298;28;19925;-57
2023/10/22 06:47:15;;;;;;;4.57;3.33;;;10.80;99.90;;;;;;5031088;28;20049;-59
2023/10/22 06:49:42;;;;;;;3.97;3.10;;;10.70;99.90;;;;;;5024354;28;20033;-59
2023/10/22 06:52:08;;;;;;;4.53;3.05;;;10.80;99.90;;;;;;5023254;28;20036;-59
2023/10/22 06:54:35;;;;;;;5.90;3.72;;;10.80;99.90;;;;;;5026339;28;20044;-57
2023/10/22 06:57:03;;;;;;;6.60;4.60;;;10.80;99.90;;;;;;5025782;28;20092;-59
2023/10/22 06:59:29;;;;;;;6.20;3.60;;;10.90;99.90;;;;;;5022278;28;20029;-57
2023/10/22 07:01:56;;;;;;;5.68;3.97;;;10.90;99.90;;;;;;5023831;28;20042;-59
2023/10/22 07:04:23;;;;;;;6.00;3.63;;;10.90;99.90;;;;;;5034103;28;20041;-60
2023/10/22 07:06:50;;;;;;;4.60;3.50;;;10.90;99.90;;;;;;5034028;28;20081;-58
2023/10/22 07:09:17;;;;;;;6.03;3.67;;;11.00;99.90;;;;;;5033690;28;20037;-59
2023/10/22 07:11:45;;;;;;;4.30;3.15;;;11.00;99.90;;;;;;5026747;28;20517;-59
2023/10/22 07:14:12;;;;;;;4.13;3.05;;;11.10;99.90;;;;;;5033570;28;20123;-59
2023/10/22 07:16:39;;;;;;;6.68;3.95;;;11.10;99.90;;;;;;5033198;28;20046;-56
2023/10/22 07:19:06;;;;;;;4.35;3.05;;;11.20;99.90;;;;;;5032987;28;20052;-56
2023/10/22 07:21:32;;;;;;;2.80;1.75;;;11.10;99.90;;;;;;5027808;28;20045;-54
2023/10/22 07:23:59;;;;;;;2.15;1.60;;;11.10;99.90;;;;;;5023136;28;20052;-54
2023/10/22 07:26:26;;;;;;;8.77;3.83;;;11.10;99.90;;;;;;5027967;28;20040;-57
2023/10/22 07:28:53;;;;;;;9.40;4.38;;;11.10;99.90;;;;;;5024956;28;20038;-54
2023/10/22 07:31:20;;;;;;;6.75;3.28;;;11.20;99.90;;;;;;5024869;28;20466;-55
2023/10/22 07:33:49;;;;;;;5.75;3.70;;;11.30;99.90;;;;;;5022536;28;20368;-54
2023/10/22 07:36:16;;;;;;;8.70;4.22;;;11.30;99.90;;;;;;5022799;28;20273;-57
2023/10/22 07:38:43;;;;;;;7.13;3.38;;;11.30;99.90;;;;;;5027737;28;20610;-59
2023/10/22 07:41:14;;;;;;;6.70;4.00;;;11.40;99.90;;;;;;5030704;28;20393;-54
2023/10/22 07:43:42;;;;;;;6.78;3.50;;;11.40;99.90;;;;;;5025868;28;20049;-55
2023/10/22 07:46:10;;;;;;;5.00;2.85;;;11.40;99.90;;;;;;5030450;28;20049;-58
2023/10/22 07:48:37;;;;;;;7.05;3.17;;;11.40;99.90;;;;;;5019570;28;20049;-58
2023/10/22 07:51:12;;;;;;;5.85;3.35;;;11.40;99.90;;;;;;5028529;28;20080;-60
2023/10/22 07:53:39;;;;;;;4.55;3.10;;;11.40;99.90;;;;;;5018825;28;20473;-56
2023/10/22 07:56:06;;;;;;;5.03;3.08;;;11.40;99.90;;;;;;5016780;28;20061;-56
2023/10/22 07:58:34;;;;;;;;;;;11.60;99.90;;;;;;5033629;28;20035;-60
2023/10/22 08:01:01;;;;;;;5.68;3.88;;;11.60;99.90;;;;;;5034403;28;20271;-57
2023/10/22 08:03:31;;;;;;;5.70;3.30;;;11.60;99.90;;;;;;5032965;28;20040;-59
2023/10/22 08:06:01;;;;;;;4.38;3.53;;;11.70;99.90;;;;;;5032470;28;20045;-59
2023/10/22 08:08:28;;;;;;;6.22;3.35;;;11.70;99.90;;;;;;5032164;28;20168;-59
2023/10/22 08:10:59;;;;;;;3.35;2.95;;;11.70;99.90;;;;;;5032917;28;20064;-58
2023/10/22 08:13:26;;;;;;;3.72;2.45;;;11.60;99.90;;;;;;5024542;28;20041;-58
2023/10/22 08:15:53;;;;;;;3.13;2.38;;;11.60;99.90;;;;;;5033117;28;20044;-58
2023/10/22 08:18:20;;;;;;;3.17;2.53;;;11.60;99.90;;;;;;5030584;28;20111;-58
2023/10/22 08:20:47;;;;;;;3.35;2.50;;;11.50;99.90;;;;;;5032657;28;20457;-55
2023/10/22 08:23:14;;;;;;;2.60;1.95;;;11.60;99.90;;;;;;5032067;28;20133;-56
2023/10/22 08:25:51;;;;;;;2.42;2.22;;;11.70;99.90;;;;;;5030907;28;20045;-57
2023/10/22 08:28:17;;;;;;;3.72;2.70;;;11.60;99.90;;;;;;5028854;28;20038;-60
2023/10/22 08:30:48;;;;;;;4.20;2.40;;;11.70;99.90;;;;;;5026073;28;20387;-56
2023/10/22 08:33:16;;;;;;;4.32;2.78;;;11.80;99.90;;;;;;5031856;28;20371;-59
2023/10/22 08:35:43;;;;;;;2.92;2.30;;;11.80;99.90;;;;;;5037834;28;20568;-57
2023/10/22 08:38:10;;;;;;;4.93;2.95;;;12.00;99.90;;;;;;5033297;28;20041;-55
2023/10/22 08:40:41;;;;;;;11.15;4.38;;;12.10;99.90;;;;;;5032593;28;20393;-59
2023/10/22 08:43:18;;;;;;;20.10;8.05;;;12.20;99.90;;;;;;5032061;28;20509;-56
2023/10/22 08:45:49;;;;;;;17.38;7.05;;;12.20;99.90;;;;;;5032432;28;20069;-58
2023/10/22 08:48:17;;;;;;;16.75;7.63;;;12.40;99.90;;;;;;5037056;28;20033;-55
2023/10/22 08:50:46;;;;;;;7.35;4.53;;;12.40;99.90;;;;;;5032036;28;20049;-59
2023/10/22 08:53:15;;;;;;;3.38;2.35;;;12.50;99.90;;;;;;5032035;28;20376;-57
2023/10/22 08:55:48;;;;;;;2.15;1.65;;;12.60;99.90;;;;;;5031300;28;20041;-54
2023/10/22 08:58:16;;;;;;;2.50;1.85;;;12.60;99.90;;;;;;5031970;28;20045;-57
2023/10/22 09:00:45;;;;;;;3.33;1.77;;;12.60;99.90;;;;;;5031785;28;20049;-58
2023/10/22 09:03:14;;;;;;;2.38;1.77;;;12.60;99.90;;;;;;5030790;28;20041;-57
2023/10/22 09:05:41;;;;;;;3.03;2.00;;;12.60;99.90;;;;;;5031879;28;20052;-60
2023/10/22 09:08:09;;;;;;;2.63;2.13;;;12.70;99.90;;;;;;5031762;28;20049;-58
2023/10/22 09:10:37;;;;;;;6.10;3.08;;;12.80;99.90;;;;;;5031920;28;20602;-59
2023/10/22 09:13:07;;;;;;;2.70;2.38;;;12.80;99.90;;;;;;5027507;28;20045;-58
2023/10/22 09:15:38;;;;;;;9.70;4.05;;;12.80;99.90;;;;;;5024261;28;20037;-58
2023/10/22 09:18:05;;;;;;;4.70;3.28;;;12.80;99.90;;;;;;5031357;28;20072;-58
2023/10/22 09:20:35;;;;;;;;;;;12.90;99.90;;;;;;5024546;28;20061;-59
2023/10/22 09:23:16;;;;;;;3.72;1.50;;;12.90;99.90;;;;;;5031037;28;19921;-58
2023/10/22 09:25:47;;;;;;;1.92;1.40;;;12.80;99.90;;;;;;5018086;28;20050;-58
2023/10/22 09:28:20;;;;;;;2.97;2.00;;;12.80;99.90;;;;;;5011065;28;20050;-58
2023/10/22 09:31:00;;;;;;;5.63;2.97;;;12.90;99.90;;;;;;5022412;28;20037;-60
2023/10/22 09:33:37;;;;;;;2.35;1.83;;;13.00;99.90;;;;;;5027330;28;20147;-62
2023/10/22 09:36:08;;;;;;;3.45;1.67;;;13.10;99.90;;;;;;5026727;28;20053;-57
2023/10/22 09:38:42;;;;;;;4.05;2.30;;;13.20;99.90;;;;;;5020001;28;20069;-59
2023/10/22 09:41:18;;;;;;;5.00;2.05;;;13.30;99.90;;;;;;5033414;28;20044;-58
2023/10/22 09:43:45;;;;;;;9.57;6.28;;;13.50;99.90;;;;;;5011600;28;20048;-58
2023/10/22 09:46:13;;;;;;;8.93;6.43;;;13.50;99.90;;;;;;5017208;28;20052;-60
2023/10/22 09:48:41;;;;;;;5.88;2.40;;;13.60;99.90;;;;;;4994523;28;20117;-60
2023/10/22 09:51:10;;;;;;;7.45;4.55;;;13.50;99.90;;;;;;5019505;28;20045;-58
2023/10/22 09:53:40;;;;;;;11.93;3.92;;;13.60;99.90;;;;;;5014667;28;20072;-59
2023/10/22 09:56:10;;;;;;;4.20;2.45;;;13.70;99.90;;;;;;5023306;28;20041;-59
2023/10/22 09:58:43;;;;;;;3.88;2.63;;;13.80;99.90;;;;;;5023301;28;20379;-58
2023/10/22 10:01:14;;;;;;;5.70;2.83;;;13.80;99.90;;;;;;5023508;28;20072;-59
2023/10/22 10:03:42;;;;;;;3.67;2.00;;;13.80;99.90;;;;;;5014899;28;20042;-60
2023/10/22 10:06:09;;;;;;;7.68;4.72;;;13.80;99.90;;;;;;5015552;28;20053;-59
2023/10/22 10:08:39;;;;;;;12.65;6.38;;;14.00;99.90;;;;;;5017548;28;20042;-59
2023/10/22 10:11:08;;;;;;;5.47;3.08;;;14.30;99.90;;;;;;5030465;28;20482;-59
2023/10/22 10:13:35;;;;;;;3.88;2.45;;;14.50;99.90;;;;;;5024293;28;20042;-57
2023/10/22 10:16:04;;;;;;;6.35;1.63;;;14.70;99.90;;;;;;5030780;28;20038;-58
2023/10/22 10:19:02;;;;;;;1.98;1.52;;;14.80;99.90;;;;;;5026015;28;20033;-59
2023/10/22 10:21:36;;;;;;;1.95;1.20;;;15.00;99.90;;;;;;5017368;28;20060;-59
2023/10/22 10:24:17;;;;;;;5.30;1.50;;;14.80;99.90;;;;;;5014177;28;20046;-59
2023/10/22 10:26:45;;;;;;;2.20;1.58;;;14.80;99.90;;;;;;5014936;28;20486;-59
2023/10/22 10:29:16;;;;;;;4.07;2.70;;;14.70;99.90;;;;;;5016550;28;20050;-59
2023/10/22 10:31:45;;;;;;;2.83;1.75;;;14.80;99.90;;;;;;5016121;28;20046;-59
2023/10/22 10:34:39;;;;;;;1.85;1.10;;;14.70;99.90;;;;;;5026934;28;20037;-59
2023/10/22 10:37:16;;;;;;;1.58;1.00;;;14.80;99.90;;;;;;5025237;28;20049;-59
2023/10/22 10:39:44;;;;;;;1.85;1.25;;;15.10;99.90;;;;;;5031897;28;20042;-59
2023/10/22 10:42:12;;;;;;;1.75;1.40;;;15.30;99.90;;;;;;5025614;28;20454;-59
2023/10/22 10:44:57;;;;;;;2.08;1.30;;;15.30;99.90;;;;;;5025985;28;20068;-57
2023/10/22 10:47:24;;;;;;;1.58;1.08;;;15.20;99.90;;;;;;5024632;28;20073;-59
2023/10/22 10:50:02;;;;;;;2.33;0.90;;;15.00;99.90;;;;;;5026537;28;20052;-59
2023/10/22 10:52:31;;;;;;;4.07;1.17;;;15.10;99.90;;;;;;5007427;28;20049;-59
2023/10/22 10:55:14;;;;;;;5.70;2.70;;;15.20;99.90;;;;;;5025368;28;20048;-59
2023/10/22 10:57:44;;;;;;;1.75;1.10;;;15.30;99.90;;;;;;5022442;28;20073;-59
2023/10/22 11:00:19;;;;;;;4.25;1.20;;;15.40;99.90;;;;;;5022603;28;20045;-59
2023/10/22 11:02:53;;;;;;;1.17;0.95;;;15.40;99.90;;;;;;5023421;28;20049;-58
2023/10/22 11:05:42;;;;;;;0.77;0.77;;;15.60;99.90;;;;;;5025210;28;20041;-58
2023/10/22 11:08:20;;;;;;;1.40;1.00;;;15.60;99.90;;;;;;5026478;28;20051;-59
2023/10/22 11:10:47;;;;;;;;;;;15.40;99.90;;;;;;5019381;28;20056;-59
2023/10/22 11:13:14;;;;;;;1.02;0.77;;;15.30;99.90;;;;;;5025674;28;19920;-58
2023/10/22 11:15:41;;;;;;;2.08;0.80;;;15.30;99.90;;;;;;5027183;28;20038;-59
2023/10/22 11:18:09;;;;;;;;;;;15.40;99.90;;;;;;5026560;28;20557;-58
2023/10/22 11:20:38;;;;;;;;;;;15.50;99.90;;;;;;5025434;28;20006;-58
2023/10/22 11:23:19;;;;;;;1.00;0.73;;;15.60;99.90;;;;;;5020774;28;19957;-58
2023/10/22 11:25:46;;;;;;;1.75;0.90;;;15.70;99.90;;;;;;5020535;28;20092;-59
2023/10/22 11:28:13;;;;;;;2.10;0.80;;;15.70;99.90;;;;;;5020825;28;20046;-59
2023/10/22 11:30:41;;;;;;;;;;;15.70;99.90;;;;;;5026687;28;20498;-58
2023/10/22 11:33:11;;;;;;;1.40;0.80;;;15.70;99.90;;;;;;5020960;28;20354;-59
2023/10/22 11:35:39;;;;;;;1.40;0.77;;;15.60;99.90;;;;;;5023246;28;20411;-59
2023/10/22 11:38:06;;;;;;;1.98;0.80;;;15.50;99.90;;;;;;5021635;28;20046;-58
2023/10/22 11:40:39;;;;;;;1.67;0.90;;;15.50;99.90;;;;;;5017236;28;20045;-59
2023/10/22 11:43:16;;;;;;;1.30;0.60;;;15.50;99.90;;;;;;5017224;28;20104;-59
2023/10/22 11:45:54;;;;;;;3.00;0.80;;;15.70;99.90;;;;;;5024803;28;20394;-59
2023/10/22 11:48:26;;;;;;;1.38;0.60;;;15.80;99.90;;;;;;5016257;28;20077;-58
2023/10/22 11:50:59;;;;;;;1.33;0.70;;;15.90;99.90;;;;;;4994360;28;20069;-59
2023/10/22 11:53:45;;;;;;;0.63;0.50;;;15.90;99.90;;;;;;5014994;28;20048;-59
2023/10/22 11:56:12;;;;;;;1.13;0.60;;;15.90;99.90;;;;;;5020938;28;20038;-58
2023/10/22 11:58:39;;;;;;;1.27;0.40;;;16.00;99.90;;;;;;5020215;28;20049;-59
2023/10/22 12:01:06;;;;;;;0.77;0.40;;;15.70;99.90;;;;;;5015691;28;20037;-58
2023/10/22 12:03:32;;;;;;;0.68;0.68;;;15.90;99.90;;;;;;5020102;28;20042;-59
2023/10/22 12:05:59;;;;;;;1.08;0.45;;;15.60;99.90;;;;;;5023777;28;20044;-59
2023/10/22 12:08:27;;;;;;;1.17;0.80;;;15.60;99.90;;;;;;5021892;28;20045;-59
2023/10/22 12:10:54;;;;;;;1.08;0.80;;;15.50;99.90;;;;;;5019674;28;20048;-59
2023/10/22 12:13:21;;;;;;;1.00;0.60;;;15.40;99.90;;;;;;5020504;28;20030;-59
2023/10/22 12:15:49;;;;;;;0.50;0.50;;;15.50;99.90;;;;;;5016247;28;20072;-59
2023/10/22 12:18:16;;;;;;;0.57;0.50;;;15.70;99.90;;;;;;5015004;28;20810;-59
2023/10/22 12:20:43;;;;;;;1.50;0.50;;;15.90;99.90;;;;;;5028345;28;20120;-59
2023/10/22 12:23:11;;;;;;;0.40;0.30;;;16.20;99.90;;;;;;5022672;28;20414;-61
2023/10/22 12:25:38;;;;;;;1.83;0.50;;;16.50;99.90;;;;;;5015115;28;20068;-58
2023/10/22 12:28:05;;;;;;;0.57;0.40;;;16.80;99.90;;;;;;5020494;28;20038;-58
2023/10/22 12:30:32;;;;;;;1.70;0.57;;;17.20;99.90;;;;;;5022668;28;20084;-57
2023/10/22 12:32:59;;;;;;;1.48;0.60;;;17.30;99.90;;;;;;5020916;28;20041;-58
2023/10/22 12:35:26;;;;;;;0.68;0.50;;;17.40;99.90;;;;;;5020795;28;20045;-57
2023/10/22 12:37:54;;;;;;;0.30;0.30;;;17.40;99.90;;;;;;5021495;28;20069;-58
2023/10/22 12:40:22;;;;;;;0.70;0.40;;;17.30;99.90;;;;;;5020785;28;20092;-58
2023/10/22 12:42:48;;;;;;;1.85;0.57;;;17.20;99.90;;;;;;5022900;28;20060;-58
2023/10/22 12:45:15;;;;;;;0.77;0.50;;;17.20;99.90;;;;;;5020999;28;20706;-58
2023/10/22 12:47:42;;;;;;;0.88;0.50;;;17.10;99.90;;;;;;5018326;28;20645;-58
2023/10/22 12:50:09;;;;;;;1.40;0.47;;;17.10;99.90;;;;;;5024175;28;20398;-57
2023/10/22 12:52:36;;;;;;;1.17;0.40;;;17.10;99.90;;;;;;5021750;28;20410;-59
2023/10/22 12:55:04;;;;;;;0.32;0.32;;;17.00;99.90;;;;;;5022453;28;20049;-58
2023/10/22 12:57:32;;;;;;;0.40;0.40;;;17.10;99.90;;;;;;5020651;28;20049;-59